createdAt,value
2023-02-23T00:01:40.386Z,97996.56
2023-02-23T00:04:07.479Z,97996.41
2023-02-23T00:06:38.801Z,97990.25
2023-02-23T00:09:23.438Z,97992.75
2023-02-23T00:11:52.980Z,97989.09
2023-02-23T00:14:20.369Z,97990.50
2023-02-23T00:16:47.383Z,97995.59
2023-02-23T00:19:14.421Z,97998.53
2023-02-23T00:21:41.912Z,97998.31
2023-02-23T00:24:11.494Z,97993.47
2023-02-23T00:26:39.810Z,97996.31
2023-02-23T00:29:11.169Z,97998.09
2023-02-23T00:31:38.900Z,97993.00
2023-02-23T00:34:06.587Z,97988.47
2023-02-23T00:36:35.617Z,97989.22
2023-02-23T00:39:21.471Z,97985.88
2023-02-23T00:41:55.641Z,97993.03
2023-02-23T00:44:24.475Z,97991.03
2023-02-23T00:46:52.262Z,97990.69
2023-02-23T00:49:22.091Z,97978.31
2023-02-23T00:51:49.567Z,97982.34
2023-02-23T00:54:18.136Z,97979.59
2023-02-23T00:56:45.917Z,97983.19
2023-02-23T00:59:14.028Z,97979.59
2023-02-23T01:01:42.131Z,97982.22
2023-02-23T01:04:09.717Z,97980.13
2023-02-23T01:06:39.865Z,97974.63
2023-02-23T01:09:09.577Z,97977.81
2023-02-23T01:11:38.677Z,97977.56
2023-02-23T01:14:05.597Z,97970.22
2023-02-23T01:16:34.645Z,97970.44
2023-02-23T01:19:04.359Z,97961.94
2023-02-23T01:21:34.439Z,97962.88
2023-02-23T01:24:02.444Z,97952.22
2023-02-23T01:26:34.228Z,97955.97
2023-02-23T01:29:08.984Z,97953.44
2023-02-23T01:31:38.019Z,97946.81
2023-02-23T01:34:06.160Z,97946.13
2023-02-23T01:36:36.602Z,97954.28
2023-02-23T01:39:07.832Z,97944.81
2023-02-23T01:41:38.232Z,97941.16
2023-02-23T01:44:27.370Z,97940.31
2023-02-23T01:46:56.123Z,97937.44
2023-02-23T01:49:28.030Z,97947.19
2023-02-23T01:52:03.136Z,97956.47
2023-02-23T01:54:36.537Z,97962.28
2023-02-23T01:57:05.298Z,97967.84
2023-02-23T01:59:37.853Z,97963.00
2023-02-23T02:02:05.477Z,97965.94
2023-02-23T02:04:44.107Z,97963.34
2023-02-23T02:07:23.896Z,97972.25
2023-02-23T02:10:12.955Z,97975.44
2023-02-23T02:12:52.179Z,97982.56
2023-02-23T02:15:20.862Z,97972.81
2023-02-23T02:18:10.735Z,97979.25
2023-02-23T02:21:31.880Z,97985.16
2023-02-23T02:24:26.953Z,97987.75
2023-02-23T02:27:20.348Z,97986.47
2023-02-23T02:29:49.850Z,97987.19
2023-02-23T02:32:31.478Z,97994.66
2023-02-23T02:35:03.892Z,97987.78
2023-02-23T02:38:05.729Z,97987.06
2023-02-23T02:41:03.975Z,97991.63
2023-02-23T02:43:30.806Z,98001.53
2023-02-23T02:46:08.600Z,97995.44
2023-02-23T02:48:38.851Z,97995.00
2023-02-23T02:51:25.042Z,97998.81
2023-02-23T02:54:19.167Z,97996.03
2023-02-23T02:56:49.092Z,98001.59
2023-02-23T02:59:38.272Z,98009.56
2023-02-23T03:02:24.965Z,98003.66
2023-02-23T03:05:10.777Z,98007.47
2023-02-23T03:08:07.524Z,98000.22
2023-02-23T03:11:05.890Z,98003.31
2023-02-23T03:14:03.267Z,98003.31
2023-02-23T03:17:09.294Z,98009.56
2023-02-23T03:20:17.122Z,98008.53
2023-02-23T03:23:15.493Z,98009.13
2023-02-23T03:26:19.918Z,98013.16
2023-02-23T03:29:17.035Z,98012.44
2023-02-23T03:32:09.366Z,98014.97
2023-02-23T03:35:22.368Z,98020.03
2023-02-23T03:38:18.653Z,98024.34
2023-02-23T03:41:07.768Z,98022.38
2023-02-23T03:43:59.719Z,98036.34
2023-02-23T03:46:48.955Z,98039.34
2023-02-23T03:49:37.009Z,98032.63
2023-02-23T03:52:37.381Z,98031.53
2023-02-23T03:55:34.605Z,98025.09
2023-02-23T03:58:21.724Z,98040.81
2023-02-23T04:01:07.814Z,98041.78
2023-02-23T04:03:57.550Z,98046.47
2023-02-23T04:06:48.179Z,98050.38
2023-02-23T04:09:33.855Z,98047.50
2023-02-23T04:12:32.198Z,98051.78
2023-02-23T04:15:34.436Z,98039.34
2023-02-23T04:18:04.449Z,98049.38
2023-02-23T04:20:31.881Z,98049.41
2023-02-23T04:22:58.864Z,98057.84
2023-02-23T04:25:26.937Z,98057.16
2023-02-23T04:27:54.541Z,98053.63
2023-02-23T04:30:25.764Z,98055.69
2023-02-23T04:32:53.006Z,98054.41
2023-02-23T04:35:20.773Z,98061.91
2023-02-23T04:37:47.668Z,98061.03
2023-02-23T04:40:14.615Z,98066.50
2023-02-23T04:42:41.993Z,98059.38
2023-02-23T04:45:09.960Z,98060.94
2023-02-23T04:47:37.436Z,98060.88
2023-02-23T04:50:04.996Z,98059.38
2023-02-23T04:52:31.899Z,98064.13
2023-02-23T04:54:58.765Z,98062.03
2023-02-23T04:57:25.695Z,98060.91
2023-02-23T04:59:52.714Z,98065.63
2023-02-23T05:02:19.581Z,98073.53
2023-02-23T05:04:46.548Z,98066.66
2023-02-23T05:07:13.473Z,98075.94
2023-02-23T05:09:41.389Z,98072.22
2023-02-23T05:12:08.592Z,98082.31
2023-02-23T05:14:36.046Z,98074.88
2023-02-23T05:17:02.985Z,98086.22
2023-02-23T05:19:30.046Z,98089.78
2023-02-23T05:21:56.974Z,98091.56
2023-02-23T05:24:23.906Z,98092.16
2023-02-23T05:26:50.855Z,98095.38
2023-02-23T05:29:18.630Z,98100.75
2023-02-23T05:31:46.255Z,98103.53
2023-02-23T05:34:13.366Z,98107.66
2023-02-23T05:36:40.277Z,98119.91
2023-02-23T05:39:07.533Z,98124.63
2023-02-23T05:41:34.894Z,98126.50
2023-02-23T05:44:02.505Z,98126.38
2023-02-23T05:46:30.219Z,98124.50
2023-02-23T05:48:59.270Z,98134.25
2023-02-23T05:51:27.258Z,98134.56
2023-02-23T05:53:54.532Z,98145.91
2023-02-23T05:56:21.706Z,98138.25
2023-02-23T05:58:53.920Z,98140.38
2023-02-23T06:01:22.167Z,98144.38
2023-02-23T06:03:49.863Z,98148.84
2023-02-23T06:06:17.595Z,98152.63
2023-02-23T06:08:44.984Z,98160.03
2023-02-23T06:11:12.407Z,98155.03
2023-02-23T06:13:39.563Z,98160.06
2023-02-23T06:16:08.706Z,98156.06
2023-02-23T06:18:35.983Z,98166.50
2023-02-23T06:21:04.291Z,98159.47
2023-02-23T06:23:32.578Z,98157.34
2023-02-23T06:26:00.239Z,98164.47
2023-02-23T06:28:28.098Z,98169.97
2023-02-23T06:30:55.944Z,98175.16
2023-02-23T06:33:23.637Z,98172.34
2023-02-23T06:35:50.730Z,98175.44
2023-02-23T06:38:17.621Z,98187.44
2023-02-23T06:40:44.585Z,98182.56
2023-02-23T06:43:11.556Z,98183.16
2023-02-23T06:45:38.681Z,98189.56
2023-02-23T06:48:05.891Z,98188.28
2023-02-23T06:50:32.852Z,98194.25
2023-02-23T06:52:59.740Z,98187.22
2023-02-23T06:55:26.607Z,98186.63
2023-02-23T06:57:54.473Z,98187.59
2023-02-23T07:00:22.144Z,98187.44
2023-02-23T07:02:49.102Z,98191.97
2023-02-23T07:05:16.517Z,98195.16
2023-02-23T07:07:43.658Z,98202.91
2023-02-23T07:10:11.376Z,98209.44
2023-02-23T07:12:38.454Z,98203.88
2023-02-23T07:15:05.975Z,98199.22
2023-02-23T07:17:33.228Z,98201.94
2023-02-23T07:20:00.175Z,98200.66
2023-02-23T07:22:30.302Z,98211.81
2023-02-23T07:24:58.057Z,98212.53
2023-02-23T07:27:25.332Z,98194.56
2023-02-23T07:29:52.367Z,98193.81
2023-02-23T07:32:19.623Z,98192.00
2023-02-23T07:34:47.884Z,98203.66
2023-02-23T07:37:15.361Z,98198.41
2023-02-23T07:39:42.273Z,98205.16
2023-02-23T07:42:09.194Z,98206.22
2023-02-23T07:44:36.383Z,98206.91
2023-02-23T07:47:03.555Z,98206.84
2023-02-23T07:49:30.610Z,98212.47
2023-02-23T07:51:57.470Z,98210.88
2023-02-23T07:54:26.052Z,98217.16
2023-02-23T07:56:53.192Z,98218.50
2023-02-23T07:59:20.128Z,98225.44
2023-02-23T08:01:47.144Z,98231.22
2023-02-23T08:04:14.107Z,98231.00
2023-02-23T08:06:41.057Z,98224.94
2023-02-23T08:09:08.150Z,98224.66
2023-02-23T08:11:35.183Z,98229.19
2023-02-23T08:14:02.181Z,98238.28
2023-02-23T08:16:31.048Z,98237.72
2023-02-23T08:18:59.474Z,98247.53
2023-02-23T08:21:29.940Z,98248.81
2023-02-23T08:23:58.342Z,98248.22
2023-02-23T08:26:25.968Z,98244.75
2023-02-23T08:28:54.172Z,98257.19
2023-02-23T08:31:24.464Z,98257.03
2023-02-23T08:33:53.278Z,98251.91
2023-02-23T08:36:22.898Z,98263.28
2023-02-23T08:38:50.274Z,98253.94
2023-02-23T08:41:17.963Z,98264.81
2023-02-23T08:43:45.313Z,98259.22
2023-02-23T08:46:13.364Z,98259.28
2023-02-23T08:48:40.789Z,98260.38
2023-02-23T08:51:08.674Z,98260.88
2023-02-23T08:53:36.227Z,98265.75
2023-02-23T08:56:06.288Z,98268.50
2023-02-23T08:58:35.482Z,98280.88
2023-02-23T09:01:03.030Z,98283.19
2023-02-23T09:03:30.957Z,98289.25
2023-02-23T09:06:04.927Z,98281.47
2023-02-23T09:08:31.874Z,98278.53
2023-02-23T09:10:58.777Z,98284.59
2023-02-23T09:13:25.671Z,98285.72
2023-02-23T09:15:52.655Z,98290.97
2023-02-23T09:18:19.849Z,98296.66
2023-02-23T09:20:46.859Z,98298.16
2023-02-23T09:23:13.821Z,98297.25
2023-02-23T09:25:44.618Z,98296.38
2023-02-23T09:28:14.044Z,98301.75
2023-02-23T09:30:42.374Z,98302.41
2023-02-23T09:33:09.778Z,98301.16
2023-02-23T09:35:37.607Z,98309.88
2023-02-23T09:38:06.999Z,98313.00
2023-02-23T09:40:54.278Z,98305.09
2023-02-23T09:43:36.522Z,98304.50
2023-02-23T10:18:04.660Z,98321.41
2023-02-23T10:21:07.319Z,98322.81
2023-02-23T10:23:49.339Z,98323.72
2023-02-23T10:26:21.765Z,98318.97
2023-02-23T10:28:49.430Z,98327.63
2023-02-23T10:31:31.520Z,98321.63
2023-02-23T10:34:03.754Z,98324.28
2023-02-23T10:36:42.793Z,98318.50
2023-02-23T10:39:13.671Z,98320.91
2023-02-23T10:41:42.572Z,98324.03
2023-02-23T10:44:18.745Z,98322.25
2023-02-23T10:46:50.082Z,98320.63
2023-02-23T10:49:22.664Z,98329.97
2023-02-23T10:51:52.397Z,98322.25
2023-02-23T10:54:39.973Z,98337.63
2023-02-23T10:57:08.842Z,98336.56
2023-02-23T10:59:36.086Z,98335.47
2023-02-23T11:02:23.409Z,98317.69
2023-02-23T11:04:53.213Z,98322.44
2023-02-23T11:07:29.588Z,98325.06
2023-02-23T11:09:58.053Z,98325.78
2023-02-23T11:12:35.986Z,98336.44
2023-02-23T11:15:39.361Z,98331.56
2023-02-23T11:18:20.953Z,98327.81
2023-02-23T11:20:48.863Z,98328.06
2023-02-23T11:23:24.617Z,98333.34
2023-02-23T11:25:56.978Z,98332.66
2023-02-23T11:28:31.805Z,98323.56
2023-02-23T11:31:04.319Z,98328.53
2023-02-23T11:33:36.155Z,98321.22
2023-02-23T11:36:31.201Z,98334.03
2023-02-23T11:39:19.622Z,98341.50
2023-02-23T11:41:46.655Z,98345.69
2023-02-23T11:44:23.996Z,98332.38
2023-02-23T11:46:52.237Z,98334.44
2023-02-23T11:49:31.699Z,98334.50
2023-02-23T11:51:59.580Z,98341.63
2023-02-23T11:54:30.932Z,98335.72
2023-02-23T11:56:58.775Z,98350.16
2023-02-23T11:59:32.359Z,98340.72
2023-02-23T12:02:19.395Z,98327.75
2023-02-23T12:04:49.731Z,98329.19
2023-02-23T12:07:24.826Z,98331.41
2023-02-23T12:10:24.122Z,98337.72
2023-02-23T12:13:07.585Z,98342.38
2023-02-23T12:15:37.616Z,98341.63
2023-02-23T12:18:14.847Z,98345.75
2023-02-23T12:20:45.002Z,98346.22
2023-02-23T12:23:22.106Z,98346.44
2023-02-23T12:25:59.816Z,98342.31
2023-02-23T12:28:37.867Z,98343.34
2023-02-23T12:31:23.717Z,98342.19
2023-02-23T12:33:57.747Z,98342.97
2023-02-23T12:36:38.650Z,98350.31
2023-02-23T12:39:08.516Z,98353.34
2023-02-23T12:42:23.092Z,98350.84
2023-02-23T12:44:54.099Z,98350.25
2023-02-23T12:47:52.098Z,98359.78
2023-02-23T12:50:26.764Z,98353.81
2023-02-23T12:52:57.860Z,98356.09
2023-02-23T12:55:31.069Z,98360.00
2023-02-23T12:58:06.883Z,98363.31
2023-02-23T13:00:52.009Z,98355.47
2023-02-23T13:03:44.745Z,98370.47
2023-02-23T13:06:16.571Z,98363.19
2023-02-23T13:09:02.654Z,98371.28
2023-02-23T13:11:42.866Z,98363.56
2023-02-23T13:14:36.588Z,98363.31
2023-02-23T13:17:08.193Z,98370.94
2023-02-23T13:19:56.505Z,98369.47
2023-02-23T13:22:33.716Z,98367.00
2023-02-23T13:25:20.828Z,98379.13
2023-02-23T13:27:52.899Z,98370.72
2023-02-23T13:30:20.917Z,98375.16
2023-02-23T13:32:47.937Z,98372.91
2023-02-23T13:35:17.674Z,98371.94
2023-02-23T13:38:01.046Z,98378.59
2023-02-23T13:40:54.816Z,98376.94
2023-02-23T13:43:30.229Z,98377.56
2023-02-23T13:46:28.753Z,98384.94
2023-02-23T13:49:02.090Z,98393.34
2023-02-23T13:51:42.756Z,98394.78
2023-02-23T13:54:12.623Z,98394.06
2023-02-23T13:56:46.082Z,98395.47
2023-02-23T13:59:19.660Z,98390.75
2023-02-23T14:01:50.417Z,98383.59
2023-02-23T14:04:24.082Z,98396.31
2023-02-23T14:07:09.256Z,98395.72
2023-02-23T14:09:41.564Z,98396.00
2023-02-23T14:12:11.492Z,98400.97
2023-02-23T14:14:42.677Z,98397.41
2023-02-23T14:17:10.735Z,98406.41
2023-02-23T14:19:41.802Z,98407.47
2023-02-23T14:22:22.197Z,98405.47
2023-02-23T14:25:26.372Z,98410.19
2023-02-23T14:28:01.718Z,98400.72
2023-02-23T14:30:30.730Z,98399.63
2023-02-23T14:33:13.107Z,98404.41
2023-02-23T14:35:45.097Z,98411.56
2023-02-23T14:38:25.071Z,98409.63
2023-02-23T14:40:54.299Z,98421.09
2023-02-23T14:43:38.369Z,98420.72
2023-02-23T14:46:12.066Z,98407.16
2023-02-23T14:48:43.833Z,98417.72
2023-02-23T14:51:17.150Z,98404.72
2023-02-23T14:53:44.375Z,98409.28
2023-02-23T14:56:26.216Z,98406.16
2023-02-23T14:58:59.129Z,98407.56
2023-02-23T15:01:52.202Z,98409.97
2023-02-23T15:04:23.443Z,98414.38
2023-02-23T15:06:54.650Z,98420.41
2023-02-23T15:09:48.161Z,98422.19
2023-02-23T15:12:20.398Z,98425.94
2023-02-23T15:14:52.539Z,98418.28
2023-02-23T15:17:22.447Z,98421.50
2023-02-23T15:20:05.984Z,98419.09
2023-02-23T15:22:41.868Z,98421.09
2023-02-23T15:25:16.385Z,98426.19
2023-02-23T15:27:45.477Z,98424.84
2023-02-23T15:30:23.850Z,98423.91
2023-02-23T15:33:23.700Z,98432.22
2023-02-23T15:35:56.323Z,98425.13
2023-02-23T15:38:45.728Z,98426.72
2023-02-23T15:41:30.489Z,98422.13
2023-02-23T15:44:14.043Z,98425.84
2023-02-23T15:46:42.664Z,98434.91
2023-02-23T15:49:14.418Z,98445.09
2023-02-23T15:51:51.176Z,98441.59
2023-02-23T15:54:32.897Z,98449.41
2023-02-23T15:57:14.227Z,98444.19
2023-02-23T15:59:41.833Z,98446.56
2023-02-23T16:02:19.480Z,98453.72
2023-02-23T16:04:52.833Z,98458.34
2023-02-23T16:07:25.936Z,98459.00
2023-02-23T16:09:55.944Z,98470.44
2023-02-23T16:12:29.322Z,98462.75
2023-02-23T16:15:00.694Z,98469.28
2023-02-23T16:17:37.709Z,98470.41
2023-02-23T16:20:14.222Z,98470.09
2023-02-23T16:22:42.087Z,98478.31
2023-02-23T16:25:15.229Z,98472.84
2023-02-23T16:27:44.669Z,98471.31
2023-02-23T16:30:23.384Z,98472.66
2023-02-23T16:33:25.922Z,98480.19
2023-02-23T16:36:15.573Z,98477.41
2023-02-23T16:38:57.985Z,98485.31
2023-02-23T16:41:27.297Z,98484.94
2023-02-23T16:43:57.990Z,98490.03
2023-02-23T16:46:28.236Z,98489.94
2023-02-23T16:48:55.180Z,98483.00
2023-02-23T16:51:24.015Z,98484.69
2023-02-23T16:53:52.626Z,98480.06
2023-02-23T16:56:22.272Z,98490.03
2023-02-23T16:58:55.677Z,98486.41
2023-02-23T17:01:22.876Z,98496.31
2023-02-23T17:03:53.302Z,98497.66
2023-02-23T17:06:21.808Z,98495.09
2023-02-23T17:08:57.553Z,98496.63
2023-02-23T17:11:25.166Z,98505.66
2023-02-23T17:13:52.146Z,98505.91
2023-02-23T17:16:19.828Z,98513.69
2023-02-23T17:18:46.962Z,98511.38
2023-02-23T17:21:14.902Z,98515.00
2023-02-23T17:23:48.314Z,98508.16
2023-02-23T17:26:15.955Z,98503.88
2023-02-23T17:28:43.394Z,98515.59
2023-02-23T17:31:10.971Z,98523.16
2023-02-23T17:33:40.152Z,98514.75
2023-02-23T17:36:10.557Z,98512.59
2023-02-23T17:38:38.716Z,98506.41
2023-02-23T17:41:09.036Z,98504.19
2023-02-23T17:43:37.764Z,98508.06
2023-02-23T17:46:05.250Z,98504.53
2023-02-23T17:48:35.748Z,98504.75
2023-02-23T17:51:06.135Z,98505.00
2023-02-23T17:53:33.226Z,98512.84
2023-02-23T17:56:00.548Z,98504.50
2023-02-23T17:58:27.910Z,98511.75
2023-02-23T18:01:01.462Z,98502.34
2023-02-23T18:03:32.092Z,98499.56
2023-02-23T18:06:04.269Z,98503.59
2023-02-23T18:08:32.020Z,98507.59
2023-02-23T18:10:59.102Z,98504.78
2023-02-23T18:13:27.902Z,98496.69
2023-02-23T18:15:59.705Z,98504.25
2023-02-23T18:18:26.903Z,98492.75
2023-02-23T18:20:58.908Z,98502.81
2023-02-23T18:23:29.018Z,98496.16
2023-02-23T18:25:56.080Z,98504.06
2023-02-23T18:28:23.009Z,98490.00
2023-02-23T18:30:49.897Z,98498.25
2023-02-23T18:33:16.888Z,98501.38
2023-02-23T18:35:47.244Z,98499.03
2023-02-23T18:38:14.892Z,98495.88
2023-02-23T18:40:42.364Z,98506.34
2023-02-23T18:43:11.066Z,98500.75
2023-02-23T18:45:38.136Z,98504.63
2023-02-23T18:48:10.164Z,98502.06
2023-02-23T18:50:37.239Z,98508.31
2023-02-23T18:53:05.594Z,98516.53
2023-02-23T18:55:32.970Z,98516.81
2023-02-23T18:57:59.917Z,98512.97
2023-02-23T19:00:27.448Z,98512.03
2023-02-23T19:02:54.556Z,98516.03
2023-02-23T19:05:22.280Z,98516.47
2023-02-23T19:07:49.449Z,98521.56
2023-02-23T19:10:16.606Z,98521.94
2023-02-23T19:12:43.946Z,98524.16
2023-02-23T19:15:11.218Z,98526.94
2023-02-23T19:17:38.336Z,98530.94
2023-02-23T19:20:13.674Z,98527.56
2023-02-23T19:22:41.668Z,98531.59
2023-02-23T19:25:11.807Z,98536.91
2023-02-23T19:27:39.038Z,98542.19
2023-02-23T19:30:10.134Z,98540.00
2023-02-23T19:32:39.871Z,98541.09
2023-02-23T19:35:10.827Z,98536.34
2023-02-23T19:37:42.189Z,98540.56
2023-02-23T19:40:09.975Z,98546.00
2023-02-23T19:42:37.134Z,98546.59
2023-02-23T19:45:04.333Z,98550.75
2023-02-23T19:47:31.355Z,98540.13
2023-02-23T19:49:58.291Z,98546.09
2023-02-23T19:52:28.874Z,98539.78
2023-02-23T19:54:55.893Z,98540.19
2023-02-23T19:57:22.896Z,98534.97
2023-02-23T19:59:49.776Z,98535.50
2023-02-23T20:02:16.915Z,98536.97
2023-02-23T20:04:43.847Z,98529.59
2023-02-23T20:07:11.659Z,98539.41
2023-02-23T20:09:38.567Z,98532.84
2023-02-23T20:12:06.370Z,98525.72
2023-02-23T20:14:33.392Z,98532.69
2023-02-23T20:17:00.585Z,98533.97
2023-02-23T20:19:28.066Z,98536.56
2023-02-23T20:21:55.143Z,98540.63
2023-02-23T20:24:22.092Z,98540.63
2023-02-23T20:26:52.358Z,98542.78
2023-02-23T20:29:19.317Z,98533.69
2023-02-23T20:31:51.694Z,98532.69
2023-02-23T20:34:23.706Z,98529.69
2023-02-23T20:36:51.499Z,98530.44
2023-02-23T20:39:19.656Z,98521.84
2023-02-23T20:41:48.005Z,98524.94
2023-02-23T20:44:16.134Z,98521.78
2023-02-23T20:46:44.769Z,98521.41
2023-02-23T20:49:15.322Z,98520.91
2023-02-23T20:51:44.430Z,98524.22
2023-02-23T20:54:12.444Z,98517.63
2023-02-23T20:56:40.467Z,98513.47
2023-02-23T20:59:11.751Z,98519.75
2023-02-23T21:01:44.037Z,98524.44
2023-02-23T21:04:13.186Z,98514.53
2023-02-23T21:06:40.244Z,98518.28
2023-02-23T21:09:12.710Z,98515.19
2023-02-23T21:11:39.802Z,98514.53
2023-02-23T21:14:08.510Z,98508.78
2023-02-23T21:16:36.192Z,98516.31
2023-02-23T21:19:05.924Z,98516.59
2023-02-23T21:21:39.155Z,98509.97
2023-02-23T21:24:06.520Z,98512.63
2023-02-23T21:26:33.514Z,98514.16
2023-02-23T21:29:00.570Z,98503.06
2023-02-23T21:31:27.867Z,98504.94
2023-02-23T21:33:54.975Z,98502.75
2023-02-23T21:36:21.918Z,98503.44
2023-02-23T21:38:49.167Z,98491.09
2023-02-23T21:41:16.195Z,98491.03
2023-02-23T21:43:44.700Z,98494.69
2023-02-23T21:46:17.241Z,98489.34
2023-02-23T21:48:44.423Z,98495.16
2023-02-23T21:51:14.213Z,98485.50
2023-02-23T21:53:42.108Z,98491.34
2023-02-23T21:56:11.947Z,98488.31
2023-02-23T21:58:59.095Z,98480.84
2023-02-23T22:01:27.427Z,98477.09
2023-02-23T22:03:57.989Z,98480.53
2023-02-23T22:06:28.118Z,98476.16
2023-02-23T22:08:56.162Z,98466.34
2023-02-23T22:11:27.427Z,98464.91
2023-02-23T22:13:59.875Z,98462.56
2023-02-23T22:16:32.195Z,98467.72
2023-02-23T22:19:03.717Z,98468.50
2023-02-23T22:21:38.924Z,98470.28
2023-02-23T22:24:06.929Z,98468.91
2023-02-23T22:26:38.539Z,98469.97
2023-02-23T22:29:06.376Z,98472.81
2023-02-23T22:31:33.528Z,98461.75
2023-02-23T22:34:00.488Z,98473.66
2023-02-23T22:36:27.449Z,98466.56
2023-02-23T22:38:58.544Z,98454.50
2023-02-23T22:41:29.527Z,98453.00
2023-02-23T22:43:58.009Z,98458.84
2023-02-23T22:46:25.704Z,98455.31
2023-02-23T22:48:52.572Z,98455.16
2023-02-23T22:51:20.453Z,98451.00
2023-02-23T22:53:47.586Z,98438.41
2023-02-23T22:56:14.482Z,98451.88
2023-02-23T22:58:42.392Z,98444.00
2023-02-23T23:01:11.925Z,98442.94
2023-02-23T23:03:47.476Z,98436.97
2023-02-23T23:06:22.285Z,98434.44
2023-02-23T23:08:51.915Z,98427.50
2023-02-23T23:11:22.850Z,98424.03
2023-02-23T23:13:53.652Z,98419.78
2023-02-23T23:16:31.442Z,98413.06
2023-02-23T23:19:12.351Z,98408.88
2023-02-23T23:21:42.184Z,98416.78
2023-02-23T23:24:13.454Z,98413.00
2023-02-23T23:26:41.401Z,98409.78
2023-02-23T23:29:12.100Z,98402.84
2023-02-23T23:31:41.358Z,98399.50
2023-02-23T23:34:10.849Z,98405.78
2023-02-23T23:36:46.311Z,98408.44
2023-02-23T23:39:16.417Z,98395.97
2023-02-23T23:41:46.265Z,98394.47
2023-02-23T23:44:13.412Z,98392.09
2023-02-23T23:46:43.079Z,98390.59
2023-02-23T23:49:16.083Z,98391.16
2023-02-23T23:51:50.313Z,98385.16
2023-02-23T23:54:21.712Z,98385.00
2023-02-23T23:56:50.295Z,98383.66
2023-02-23T23:59:20.623Z,98371.00
